createdAt,value
2022-10-28T00:00:42.933Z,98057.71
2022-10-28T00:11:18.510Z,98056.39
2022-10-28T00:21:25.049Z,98057.55
2022-10-28T00:31:30.652Z,98057.17
2022-10-28T00:41:37.063Z,98056.21
2022-10-28T00:51:41.485Z,98047.20
2022-10-28T01:01:45.628Z,98035.66
2022-10-28T01:11:58.349Z,98028.80
2022-10-28T01:22:10.779Z,98022.84
2022-10-28T01:32:39.427Z,98021.23
2022-10-28T01:42:55.368Z,98011.42
2022-10-28T01:53:04.157Z,98004.66
2022-10-28T02:03:09.858Z,97991.83
2022-10-28T02:13:16.391Z,97986.00
2022-10-28T02:23:56.074Z,97975.19
2022-10-28T02:34:07.632Z,97973.45
2022-10-28T02:44:16.097Z,97963.86
2022-10-28T02:54:25.493Z,97951.02
2022-10-28T03:04:29.286Z,97941.30
2022-10-28T03:14:33.145Z,97932.63
2022-10-28T03:24:36.900Z,97936.20
2022-10-28T03:34:40.786Z,97936.27
2022-10-28T03:44:44.346Z,97927.45
2022-10-28T03:54:48.306Z,97930.39
2022-10-28T04:04:52.479Z,97926.94
2022-10-28T04:14:56.558Z,97928.18
2022-10-28T04:25:00.538Z,97930.48
2022-10-28T04:35:04.603Z,97933.70
2022-10-28T04:45:09.644Z,97920.98
2022-10-28T04:55:13.379Z,97918.94
2022-10-28T05:05:18.253Z,97917.71
2022-10-28T05:15:22.233Z,97918.42
2022-10-28T05:25:26.802Z,97919.56
2022-10-28T05:35:31.304Z,97903.84
2022-10-28T05:45:35.382Z,97905.90
2022-10-28T05:55:40.929Z,97911.23
2022-10-28T06:05:47.818Z,97924.91
2022-10-28T06:15:54.357Z,97908.27
2022-10-28T06:26:00.638Z,97915.41
2022-10-28T06:36:04.935Z,97918.90
2022-10-28T06:46:08.647Z,97917.27
2022-10-28T06:56:14.247Z,97910.73
2022-10-28T07:06:18.432Z,97906.86
2022-10-28T07:16:22.609Z,97911.75
2022-10-28T07:26:27.208Z,97917.52
2022-10-28T07:36:31.186Z,97914.55
2022-10-28T07:46:35.983Z,97908.66
2022-10-28T07:56:39.744Z,97903.64
2022-10-28T08:06:44.708Z,97902.16
2022-10-28T08:16:48.370Z,97898.48
2022-10-28T08:26:53.595Z,97889.05
2022-10-28T08:36:58.223Z,97882.17
2022-10-28T08:47:15.529Z,97872.59
2022-10-28T08:57:31.373Z,97870.50
2022-10-28T09:07:37.449Z,97865.41
2022-10-28T09:17:50.277Z,97860.86
2022-10-28T09:28:02.244Z,97853.81
2022-10-28T09:38:27.078Z,97853.50
2022-10-28T09:48:37.920Z,97843.52
2022-10-28T09:58:48.020Z,97841.84
2022-10-28T10:08:53.333Z,97831.44
2022-10-28T10:19:00.045Z,97825.77
2022-10-28T10:29:04.031Z,97820.86
2022-10-28T10:39:34.300Z,97812.64
2022-10-28T10:49:38.271Z,97809.69
2022-10-28T10:59:47.327Z,97810.75
2022-10-28T11:09:52.358Z,97806.95
2022-10-28T11:19:59.114Z,97799.29
2022-10-28T11:30:04.189Z,97797.14
2022-10-28T11:40:28.114Z,97787.16
2022-10-28T11:51:10.975Z,97776.55
2022-10-28T12:01:50.329Z,97765.11
2022-10-28T12:12:22.777Z,97758.60
2022-10-28T12:22:28.697Z,97752.31
2022-10-28T12:32:35.885Z,97753.46
2022-10-28T12:43:01.296Z,97749.65
2022-10-28T12:53:06.318Z,97745.48
2022-10-28T13:03:15.330Z,97740.45
2022-10-28T13:13:25.905Z,97735.56
2022-10-28T13:24:08.990Z,97721.54
2022-10-28T13:34:19.984Z,97724.73
2022-10-28T13:44:27.620Z,97723.95
2022-10-28T13:54:51.180Z,97724.11
2022-10-28T14:05:01.241Z,97730.27
2022-10-28T14:15:18.592Z,97729.08
2022-10-28T14:25:41.372Z,97730.15
2022-10-28T14:35:48.347Z,97721.89
2022-10-28T14:46:01.797Z,97720.54
2022-10-28T14:56:13.130Z,97717.09
2022-10-28T15:06:31.027Z,97713.13
2022-10-28T15:16:35.723Z,97710.02
2022-10-28T15:26:40.311Z,97711.87
2022-10-28T15:36:50.546Z,97711.52
2022-10-28T15:46:56.897Z,97719.19
2022-10-28T15:57:01.021Z,97719.33
2022-10-28T16:07:09.394Z,97726.59
2022-10-28T16:17:27.499Z,97726.11
2022-10-28T16:27:33.149Z,97724.98
2022-10-28T16:37:43.347Z,97733.35
2022-10-28T16:47:52.047Z,97735.13
2022-10-28T16:57:56.856Z,97746.23
2022-10-28T17:08:04.536Z,97753.53
2022-10-28T17:18:17.706Z,97746.37
2022-10-28T17:28:22.020Z,97752.85
2022-10-28T17:38:26.184Z,97753.33
2022-10-28T17:48:30.893Z,97754.85
2022-10-28T17:58:35.494Z,97756.28
2022-10-28T18:08:42.226Z,97755.13
2022-10-28T18:18:47.660Z,97752.96
2022-10-28T18:28:53.574Z,97751.61
2022-10-28T18:38:59.104Z,97749.29
2022-10-28T18:49:05.494Z,97742.85
2022-10-28T18:59:10.493Z,97738.08
2022-10-28T19:09:15.223Z,97730.01
2022-10-28T19:19:19.754Z,97732.58
2022-10-28T19:29:24.459Z,97735.11
2022-10-28T19:39:30.651Z,97743.29
2022-10-28T19:49:39.354Z,97744.43
2022-10-28T19:59:45.731Z,97748.79
2022-10-28T20:09:50.992Z,97750.31
2022-10-28T20:19:54.531Z,97750.40
2022-10-28T20:30:01.682Z,97750.80
2022-10-28T20:40:07.668Z,97743.01
2022-10-28T20:50:11.854Z,97743.98
2022-10-28T21:00:16.239Z,97750.06
2022-10-28T21:10:20.111Z,97751.31
2022-10-28T21:20:24.190Z,97748.05
2022-10-28T21:30:28.359Z,97741.48
2022-10-28T21:40:31.974Z,97740.16
2022-10-28T21:50:35.593Z,97742.45
2022-10-28T22:00:39.782Z,97738.78
2022-10-28T22:10:43.547Z,97730.48
2022-10-28T22:20:47.107Z,97718.36
2022-10-28T22:30:50.547Z,97711.30
2022-10-28T22:41:17.261Z,97703.39
2022-10-28T22:51:27.818Z,97701.09
2022-10-28T23:01:32.187Z,97698.41
2022-10-28T23:11:36.032Z,97697.70
2022-10-28T23:21:39.605Z,97693.88
2022-10-28T23:31:43.259Z,97687.21
2022-10-28T23:41:46.826Z,97687.66
2022-10-28T23:51:50.595Z,97686.58
